Time;durP1;ratioP1;P1;durP2;ratioP2;P2;SDS_P1;SDS_P2;PMS_P1;PMS_P2;Temp;Humidity;BMP_temperature;BMP_pressure;BME280_temperature;BME280_humidity;BME280_pressure;Samples;Min_cycle;Max_cycle;Signal;HPM_P1;HPM_P2
2022/03/20 00:00:32;;;;;;;;;5.00;3.25;;;;;8.56;66.04;102344.28;5084388;27;45754;-84
2022/03/20 00:02:58;;;;;;;;;6.00;3.00;;;;;8.54;66.04;102355.81;5078667;27;44762;-85
2022/03/20 00:05:24;;;;;;;;;6.00;5.00;;;;;8.50;65.98;102344.44;5078433;27;44714;-84
2022/03/20 00:07:50;;;;;;;;;4.75;4.75;;;;;8.46;66.61;102343.69;5078192;28;45382;-87
2022/03/20 00:10:15;;;;;;;;;4.50;4.50;;;;;8.42;66.49;102338.56;5078949;27;45398;-83
2022/03/20 00:12:42;;;;;;;;;5.00;4.00;;;;;8.36;67.10;102338.69;5086458;27;45277;-83
2022/03/20 00:15:09;;;;;;;;;4.00;4.00;;;;;8.31;66.86;102340.63;5083899;27;45349;-84
2022/03/20 00:17:35;;;;;;;;;3.50;3.50;;;;;8.30;67.01;102336.25;5084245;27;45235;-84
2022/03/20 00:20:01;;;;;;;;;5.25;3.25;;;;;8.24;67.15;102327.59;5083046;27;45407;-85
2022/03/20 00:22:27;;;;;;;;;6.00;4.25;;;;;8.22;67.52;102333.88;5081428;27;44804;-84
2022/03/20 00:24:52;;;;;;;;;3.00;3.00;;;;;8.18;66.16;102325.16;5081280;27;45325;-84
2022/03/20 00:27:18;;;;;;;;;5.25;4.25;;;;;8.17;67.82;102328.72;5086896;27;45458;-83
2022/03/20 00:29:44;;;;;;;;;3.75;3.75;;;;;8.16;67.79;102328.72;5080159;27;45453;-84
2022/03/20 00:32:12;;;;;;;;;3.00;3.00;;;;;8.10;67.79;102335.09;5079486;27;45381;-84
2022/03/20 00:34:38;;;;;;;;;3.00;3.00;;;;;8.05;68.25;102334.38;5078787;27;45319;-84
2022/03/20 00:37:06;;;;;;;;;4.00;4.00;;;;;8.04;67.73;102332.66;5079033;27;45411;-85
2022/03/20 00:39:32;;;;;;;;;4.00;2.25;;;;;8.01;67.39;102331.88;5079377;27;45265;-83
2022/03/20 00:41:57;;;;;;;;;4.25;3.00;;;;;7.97;68.03;102331.09;5078678;27;45351;-84
2022/03/20 00:44:22;;;;;;;;;6.00;6.00;;;;;7.97;68.34;102331.09;5078566;28;45404;-84
2022/03/20 00:46:48;;;;;;;;;6.25;4.50;;;;;7.92;68.08;102320.63;5080348;27;45311;-82
2022/03/20 00:49:14;;;;;;;;;1.75;1.75;;;;;7.90;68.46;102321.63;5080381;27;45097;-84
2022/03/20 00:51:40;;;;;;;;;2.00;2.00;;;;;7.86;68.96;102322.63;5084307;27;45413;-84
2022/03/20 00:54:05;;;;;;;;;5.25;3.50;;;;;7.83;70.17;102320.94;5104847;27;45282;-84
2022/03/20 00:56:30;;;;;;;;;2.50;2.50;;;;;7.80;69.98;102312.22;5104148;27;45540;-83
2022/03/20 00:58:56;;;;;;;;;3.00;3.00;;;;;7.77;69.86;102318.47;5099747;27;45368;-83
2022/03/20 01:01:21;;;;;;;;;4.00;2.00;;;;;7.72;70.00;102304.50;5098544;27;44803;-84
2022/03/20 01:03:47;;;;;;;;;3.25;3.00;;;;;7.72;70.41;102318.59;5099512;27;45454;-83
2022/03/20 01:06:12;;;;;;;;;4.75;3.75;;;;;7.68;68.50;102314.28;5099923;27;45236;-84
2022/03/20 01:08:38;;;;;;;;;5.25;4.00;;;;;7.63;70.63;102313.56;5098364;27;45028;-84
2022/03/20 01:11:07;;;;;;;;;1.75;1.00;;;;;7.59;71.36;102313.69;5099482;27;45314;-83
2022/03/20 01:13:34;;;;;;;;;1.75;1.75;;;;;7.55;71.47;102305.00;5099249;27;44652;-83
2022/03/20 01:16:00;;;;;;;;;4.00;4.00;;;;;7.53;72.54;102308.59;5099714;27;44864;-82
2022/03/20 01:18:26;;;;;;;;;4.50;2.50;;;;;7.49;72.75;102302.53;5099988;27;45340;-84
2022/03/20 01:20:54;;;;;;;;;3.00;3.00;;;;;7.44;70.71;102305.28;5104986;27;45337;-83
2022/03/20 01:23:23;;;;;;;;;1.25;1.25;;;;;7.38;73.38;102302.84;5107160;27;45469;-83
2022/03/20 01:25:50;;;;;;;;;3.00;3.00;;;;;7.35;73.64;102304.69;5102111;27;44931;-82
2022/03/20 01:28:18;;;;;;;;;3.00;2.75;;;;;7.31;74.78;102300.44;5099169;27;45121;-83
2022/03/20 01:30:44;;;;;;;;;3.75;3.75;;;;;7.25;74.53;102293.50;5103462;27;44878;-83
2022/03/20 01:33:09;;;;;;;;;1.00;1.00;;;;;7.21;73.23;102291.88;5104369;27;44756;-81
2022/03/20 01:35:35;;;;;;;;;3.00;3.00;;;;;7.19;75.71;102288.41;5105247;27;45222;-82
2022/03/20 01:38:01;;;;;;;;;3.75;3.75;;;;;7.15;75.15;102286.75;5103967;27;45551;-83
2022/03/20 01:40:27;;;;;;;;;3.00;2.00;;;;;7.13;76.26;102288.59;5100614;27;44769;-83
2022/03/20 01:42:52;;;;;;;;;4.00;2.25;;;;;7.13;77.14;102288.59;5100930;27;44827;-82
2022/03/20 01:45:21;;;;;;;;;3.50;2.00;;;;;7.10;78.18;102281.59;5100342;27;45461;-83
2022/03/20 01:47:49;;;;;;;;;7.50;2.75;;;;;7.04;74.66;102280.91;5100675;27;46902;-84
2022/03/20 01:50:25;;;;;;;;;5.00;3.25;;;;;7.02;76.05;102283.59;5105511;27;44781;-83
2022/03/20 01:52:52;;;;;;;;;3.25;3.25;;;;;6.95;78.31;102280.25;5111607;27;44813;-82
2022/03/20 01:55:19;;;;;;;;;3.00;3.00;;;;;6.91;80.83;102273.34;5106559;27;44861;-82
2022/03/20 01:57:45;;;;;;;;;5.50;4.50;;;;;6.87;80.87;102273.44;5108268;27;45363;-83
2022/03/20 02:00:14;;;;;;;;;2.00;2.00;;;;;6.83;82.30;102271.78;5104946;27;44685;-84
2022/03/20 02:02:39;;;;;;;;;4.00;3.00;;;;;6.78;83.14;102266.63;5109127;27;44858;-85
2022/03/20 02:05:09;;;;;;;;;2.00;2.00;;;;;6.74;82.00;102270.25;5109273;27;44810;-83
2022/03/20 02:07:37;;;;;;;;;6.67;3.00;;;;;6.69;83.80;102261.59;5106485;27;45337;-83
2022/03/20 02:10:04;;;;;;;;;1.67;1.67;;;;;6.63;84.80;102254.69;5105518;27;44711;-82
2022/03/20 02:12:30;;;;;;;;;2.50;2.50;;;;;6.60;85.17;102253.91;5104653;27;44737;-84
2022/03/20 02:14:58;;;;;;;;;2.00;2.00;;;;;6.58;84.42;102243.41;5099661;27;45306;-83
2022/03/20 02:17:26;;;;;;;;;6.33;4.00;;;;;6.54;85.08;102243.50;5104862;27;46963;-85
2022/03/20 02:19:52;;;;;;;;;3.50;3.25;;;;;6.51;87.30;102251.50;5099699;27;44758;-83
2022/03/20 02:22:17;;;;;;;;;2.25;2.25;;;;;6.48;83.36;102239.25;5100399;27;45174;-82
2022/03/20 02:24:48;;;;;;;;;4.00;4.00;;;;;6.47;86.31;102242.78;5103885;27;44946;-81
2022/03/20 02:27:20;;;;;;;;;5.00;3.67;;;;;6.42;86.24;102239.41;5108509;27;45964;-82
2022/03/20 02:30:12;;;;;;;;;4.67;4.00;;;;;6.40;87.59;102236.81;5107869;27;44785;-83
2022/03/20 02:32:40;;;;;;;;;3.00;3.00;;;;;6.39;85.86;102237.72;5107632;27;44713;-82
2022/03/20 02:35:11;;;;;;;;;3.50;3.50;;;;;6.37;87.74;102222.81;5105437;27;44733;-82
2022/03/20 02:37:40;;;;;;;;;1.00;1.00;;;;;6.35;89.14;102222.00;5105158;27;45192;-83
2022/03/20 02:40:06;;;;;;;;;2.00;2.00;;;;;6.31;90.39;102212.41;5107026;27;44752;-81
2022/03/20 02:42:31;;;;;;;;;2.00;2.00;;;;;6.29;89.38;102215.09;5111456;27;44747;-82
2022/03/20 02:45:00;;;;;;;;;2.50;2.50;;;;;6.30;90.46;102215.97;5106284;27;44910;-82
2022/03/20 02:47:27;;;;;;;;;3.50;3.50;;;;;6.30;89.54;102218.59;5099762;27;45444;-81
2022/03/20 02:49:57;;;;;;;;;3.75;3.00;;;;;6.29;89.58;102214.25;5099202;27;44758;-83
2022/03/20 02:52:31;;;;;;;;;1.00;1.00;;;;;6.26;89.23;102215.16;5100211;27;45336;-82
2022/03/20 02:55:00;;;;;;;;;5.00;4.00;;;;;6.24;89.29;102216.09;5067115;27;45545;-83
2022/03/20 02:57:27;;;;;;;;;4.75;4.75;;;;;6.21;93.60;102211.78;5058275;28;45063;-83
2022/03/20 02:59:52;;;;;;;;;8.75;7.25;;;;;6.18;94.51;102211.84;5057443;27;44805;-83
2022/03/20 03:02:18;;;;;;;;;4.50;4.00;;;;;6.12;93.25;102206.72;5057305;28;44799;-83
2022/03/20 03:04:43;;;;;;;;;3.00;3.00;;;;;6.09;93.79;102201.53;5057519;28;45208;-83
2022/03/20 03:07:10;;;;;;;;;5.33;4.00;;;;;6.08;96.35;102195.38;5058469;28;45182;-83
2022/03/20 03:12:21;;;;;;;;;6.33;3.33;;;;;6.03;98.93;102196.41;5057628;28;45279;-84
2022/03/20 03:17:30;;;;;;;;;8.00;4.00;;;;;5.95;99.46;102191.34;5056780;28;44998;-83
2022/03/20 03:19:55;;;;;;;;;8.00;4.00;;;;;5.90;97.79;102188.78;5056417;28;45287;-82
2022/03/20 03:22:22;;;;;;;;;8.00;4.67;;;;;5.83;100.00;102187.16;5054878;28;44775;-82
2022/03/20 03:24:48;;;;;;;;;4.67;4.00;;;;;5.77;100.00;102195.22;5056488;28;44876;-82
2022/03/20 03:27:13;;;;;;;;;8.00;3.00;;;;;5.76;100.00;102187.38;5056314;28;45135;-82
2022/03/20 03:29:38;;;;;;;;;5.33;5.00;;;;;5.71;100.00;102194.53;5054882;27;45419;-83
2022/03/20 03:32:05;;;;;;;;;3.33;3.00;;;;;5.66;100.00;102192.84;5056085;28;44980;-81
2022/03/20 03:37:18;;;;;;;;;3.00;1.50;;;;;5.58;100.00;102191.28;5064518;28;45127;-82
2022/03/20 03:39:44;;;;;;;;;6.67;4.67;;;;;5.54;96.96;102190.47;5062265;28;44806;-82
2022/03/20 03:42:10;;;;;;;;;8.00;5.00;;;;;5.50;100.00;102191.44;5061815;28;44770;-82
2022/03/20 03:44:35;;;;;;;;;3.33;1.33;;;;;5.44;100.00;102185.47;5055850;28;44994;-83
2022/03/20 03:47:01;;;;;;;;;3.67;3.67;;;;;5.41;100.00;102191.66;5054582;28;46804;-83
2022/03/20 03:49:26;;;;;;;;;7.33;4.00;;;;;5.37;99.27;102190.00;5057462;28;45325;-83
2022/03/20 03:51:52;;;;;;;;;9.33;8.00;;;;;5.36;100.00;102186.47;5057670;28;45422;-83
2022/03/20 03:54:17;;;;;;;;;8.00;8.00;;;;;5.33;100.00;102189.19;5057963;28;45292;-82
2022/03/20 03:56:42;;;;;;;;;9.00;5.00;;;;;5.31;100.00;102184.84;5054716;28;45156;-83
2022/03/20 03:59:10;;;;;;;;;4.67;4.67;;;;;5.30;100.00;102181.34;5056327;28;44720;-83
2022/03/20 04:01:36;;;;;;;;;7.00;7.00;;;;;5.31;100.00;102180.44;5057312;28;45401;-83
2022/03/20 04:04:01;;;;;;;;;5.00;5.00;;;;;5.31;100.00;102184.84;5060084;28;44913;-82
2022/03/20 04:06:27;;;;;;;;;7.00;5.00;;;;;5.28;100.00;102191.06;5063978;28;44933;-82
2022/03/20 04:08:54;;;;;;;;;9.33;7.00;;;;;5.27;100.00;102185.81;5059960;27;44739;-83
2022/03/20 04:11:20;;;;;;;;;8.33;7.00;;;;;5.27;100.00;102194.63;5059202;28;44776;-83
2022/03/20 04:13:46;;;;;;;;;10.67;9.00;;;;;5.27;100.00;102188.44;5059090;28;45317;-81
2022/03/20 04:16:11;;;;;;;;;9.00;9.00;;;;;5.27;100.00;102188.44;5058042;28;45142;-83
2022/03/20 04:18:37;;;;;;;;;14.67;11.00;;;;;5.23;100.00;102187.66;5056505;28;45492;-82
2022/03/20 04:21:04;;;;;;;;;10.00;8.00;;;;;5.17;100.00;102179.88;5055788;28;44844;-82
2022/03/20 04:23:49;;;;;;;;;4.33;4.00;;;;;5.18;100.00;102183.41;5058235;28;44774;-82
2022/03/20 04:26:20;;;;;;;;;12.00;9.00;;;;;5.16;100.00;102183.41;5062651;27;45261;-83
2022/03/20 04:28:47;;;;;;;;;11.67;8.00;;;;;5.17;100.00;102187.78;5062213;28;44797;-81
2022/03/20 04:31:16;;;;;;;;;8.67;7.33;;;;;5.14;100.00;102187.84;5063636;28;45385;-82
2022/03/20 04:33:49;;;;;;;;;8.33;7.67;;;;;5.11;100.00;102183.50;5064932;28;44832;-82
2022/03/20 04:36:15;;;;;;;;;9.33;9.33;;;;;5.07;100.00;102170.44;5067074;27;47021;-83
2022/03/20 04:38:41;;;;;;;;;9.33;9.00;;;;;5.06;100.00;102172.19;5063187;28;45404;-81
2022/03/20 04:41:07;;;;;;;;;9.67;9.67;;;;;5.01;100.00;102173.19;5057959;28;44774;-83
2022/03/20 04:43:32;;;;;;;;;12.33;10.00;;;;;5.01;100.00;102179.34;5058131;28;44789;-82
2022/03/20 04:45:58;;;;;;;;;14.67;12.33;;;;;4.98;100.00;102178.53;5058010;28;45081;-82
2022/03/20 04:59:20;;;;;;;;;8.33;8.33;;;;;4.84;100.00;102158.63;5104018;27;44771;-83
2022/03/20 05:01:46;;;;;;;;;14.33;13.33;;;;;4.80;100.00;102167.47;5103045;27;44837;-81
2022/03/20 05:04:14;;;;;;;;;10.00;10.00;;;;;4.80;100.00;102171.88;5104618;27;44821;-83
2022/03/20 05:06:41;;;;;;;;;12.67;10.00;;;;;4.78;100.00;102169.25;5107011;27;45310;-83
2022/03/20 05:14:35;;;;;;;;;8.67;8.67;;;;;4.75;100.00;102165.84;5099298;27;45213;-83
2022/03/20 05:17:06;;;;;;;;;11.00;9.67;;;;;4.70;100.00;102168.56;5098936;27;44974;-83
2022/03/20 05:19:37;;;;;;;;;20.33;14.00;;;;;4.66;100.00;102172.16;5097813;27;44799;-83
2022/03/20 05:22:04;;;;;;;;;14.67;8.67;;;;;4.63;100.00;102169.56;5098877;27;45429;-82
2022/03/20 05:24:31;;;;;;;;;12.67;10.00;;;;;4.61;100.00;102168.75;5099321;27;45333;-82
2022/03/20 05:26:56;;;;;;;;;9.00;9.00;;;;;4.59;100.00;102178.41;5098841;27;45509;-82
2022/03/20 05:29:25;;;;;;;;;9.67;7.00;;;;;4.56;100.00;102178.50;5100200;27;44861;-83
2022/03/20 05:31:53;;;;;;;;;9.33;9.33;;;;;4.51;100.00;102173.31;5103661;27;45352;-83
2022/03/20 05:34:19;;;;;;;;;14.33;10.33;;;;;4.49;100.00;102174.22;5106571;27;44900;-82
2022/03/20 05:36:45;;;;;;;;;18.67;10.00;;;;;4.48;100.00;102177.75;5108742;27;45310;-82
2022/03/20 05:39:11;;;;;;;;;7.00;6.00;;;;;4.46;100.00;102163.78;5099598;27;44734;-83
2022/03/20 05:41:49;;;;;;;;;12.33;9.33;;;;;4.46;100.00;102158.50;5099177;27;44715;-83
2022/03/20 05:44:16;;;;;;;;;5.67;5.33;;;;;4.43;100.00;102167.31;5098833;27;45506;-82
2022/03/20 05:46:44;;;;;;;;;12.67;9.33;;;;;4.40;100.00;102162.13;5099754;27;45574;-81
2022/03/20 05:49:10;;;;;;;;;8.33;6.33;;;;;4.42;100.00;102152.44;5098431;27;44945;-82
2022/03/20 05:51:37;;;;;;;;;13.00;11.00;;;;;4.43;100.00;102158.56;5100430;27;44806;-84
2022/03/20 05:54:03;;;;;;;;;9.00;8.00;;;;;4.41;100.00;102157.72;5087537;27;45539;-83
2022/03/20 05:59:12;;;;;;;;;8.33;8.33;;;;;4.37;100.00;102163.03;5079622;28;44787;-83
2022/03/20 06:01:37;;;;;;;;;12.33;11.00;;;;;4.32;100.00;102158.75;5079930;27;45320;-82
2022/03/20 06:04:05;;;;;;;;;15.67;9.33;;;;;4.31;100.00;102160.53;5080211;27;44847;-84
2022/03/20 06:06:31;;;;;;;;;11.67;8.67;;;;;4.36;100.00;102160.44;5086305;28;45231;-83
2022/03/20 06:08:56;;;;;;;;;8.67;8.67;;;;;4.39;100.00;102163.00;5082407;28;45209;-83
2022/03/20 06:11:21;;;;;;;;;8.67;8.67;;;;;4.44;100.00;102162.91;5080315;28;44722;-82
2022/03/20 06:13:48;;;;;;;;;13.67;11.67;;;;;4.50;100.00;102162.81;5081281;27;44752;-84
2022/03/20 06:16:14;;;;;;;;;11.67;8.67;;;;;4.57;100.00;102167.06;5080671;27;45244;-81
2022/03/20 06:18:42;;;;;;;;;7.67;6.67;;;;;4.62;100.00;102162.56;5080788;27;45430;-83
2022/03/20 06:21:09;;;;;;;;;10.00;10.00;;;;;4.69;100.00;102171.19;5078776;27;45359;-84
2022/03/20 06:23:35;;;;;;;;;12.67;10.33;;;;;4.75;100.00;102171.97;5078732;27;44836;-82
2022/03/20 06:26:00;;;;;;;;;15.67;11.33;;;;;4.82;100.00;102167.44;5077868;27;45319;-83
2022/03/20 06:28:26;;;;;;;;;12.00;11.00;;;;;4.92;100.00;102170.75;5082452;27;44709;-82
2022/03/20 06:30:52;;;;;;;;;10.00;10.00;;;;;5.00;100.00;102174.09;5083638;27;44753;-81
2022/03/20 06:33:17;;;;;;;;;15.67;12.33;;;;;4.98;100.00;102176.78;5081723;27;44878;-84
2022/03/20 06:35:42;;;;;;;;;12.67;12.67;;;;;5.05;100.00;102182.78;5081326;27;45376;-83
2022/03/20 06:38:08;;;;;;;;;9.00;9.00;;;;;5.14;100.00;102183.47;5086125;27;44793;-83
2022/03/20 06:40:33;;;;;;;;;12.00;8.67;;;;;5.15;100.00;102179.91;5086570;27;45367;-83
2022/03/20 06:42:59;;;;;;;;;17.33;11.67;;;;;5.21;100.00;102181.53;5081664;27;44797;-84
2022/03/20 06:45:24;;;;;;;;;14.00;14.00;;;;;5.23;100.00;102186.81;5076007;28;46966;-83
2022/03/20 06:47:50;;;;;;;;;13.67;13.67;;;;;5.29;100.00;102197.19;5075880;28;44789;-81
2022/03/20 06:50:16;;;;;;;;;12.00;12.00;;;;;5.32;100.00;102202.41;5078213;27;44825;-82
2022/03/20 06:52:42;;;;;;;;;15.67;13.67;;;;;5.37;100.00;102200.56;5077531;27;44788;-81
2022/03/20 06:55:12;;;;;;;;;17.33;12.33;;;;;5.50;100.00;102202.00;5079733;27;46892;-83
2022/03/20 06:57:41;;;;;;;;;12.00;11.00;;;;;5.54;100.00;102201.03;5081046;28;45334;-81
2022/03/20 07:00:08;;;;;;;;;15.00;15.00;;;;;5.60;100.00;102207.94;5083202;27;44749;-80
2022/03/20 07:02:34;;;;;;;;;15.00;12.33;;;;;5.67;100.00;102201.63;5082710;27;45282;-81
2022/03/20 07:05:00;;;;;;;;;14.33;12.67;;;;;5.67;100.00;102205.13;5082106;27;45217;-82
2022/03/20 07:07:26;;;;;;;;;17.33;13.67;;;;;5.60;100.00;102210.56;5080837;27;44669;-83
2022/03/20 07:09:52;;;;;;;;;19.67;12.00;;;;;5.66;100.00;102213.94;5089125;27;44697;-81
2022/03/20 07:12:17;;;;;;;;;16.00;15.33;;;;;5.78;100.00;102210.16;5087192;27;44784;-83
2022/03/20 07:14:43;;;;;;;;;20.00;16.00;;;;;5.81;100.00;102215.34;5081886;27;45440;-81
2022/03/20 07:17:11;;;;;;;;;16.33;9.67;;;;;5.86;100.00;102216.13;5082611;27;44749;-82
2022/03/20 07:19:43;;;;;;;;;18.67;13.67;;;;;5.92;100.00;102218.63;5082246;28;44816;-80
2022/03/20 07:22:13;;;;;;;;;21.33;18.00;;;;;5.96;100.00;102215.94;5081151;27;44839;-82
2022/03/20 07:24:41;;;;;;;;;22.00;18.00;;;;;6.01;100.00;102211.41;5081128;27;45301;-82
2022/03/20 07:29:52;;;;;;;;;15.00;14.67;;;;;6.17;100.00;102220.69;5084176;28;44653;-79
2022/03/20 07:32:17;;;;;;;;;21.67;18.67;;;;;6.16;100.00;102217.16;5081223;27;45509;-81
2022/03/20 07:34:45;;;;;;;;;16.33;13.00;;;;;6.32;100.00;102211.50;5081260;27;45421;-83
2022/03/20 07:37:15;;;;;;;;;23.67;16.00;;;;;6.47;100.00;102213.75;5078003;27;44676;-83
2022/03/20 07:39:42;;;;;;;;;20.00;20.00;;;;;6.65;100.00;102212.41;5078205;27;45647;-82
2022/03/20 07:42:08;;;;;;;;;22.00;20.67;;;;;6.63;100.00;102209.81;5082970;27;44862;-83
2022/03/20 07:44:36;;;;;;;;;29.00;20.33;;;;;6.77;100.00;102213.84;5083491;27;45067;-83
2022/03/20 07:47:03;;;;;;;;;20.67;19.33;;;;;6.79;100.00;102214.66;5075936;27;45433;-83
2022/03/20 07:49:30;;;;;;;;;27.00;25.00;;;;;6.78;100.00;102226.16;5076405;27;45278;-82
2022/03/20 07:51:57;;;;;;;;;33.00;23.67;;;;;6.70;100.00;102223.69;5076463;27;45512;-82
2022/03/20 07:54:27;;;;;;;;;30.33;24.33;;;;;6.81;100.00;102220.75;5075967;27;45241;-82
2022/03/20 07:56:52;;;;;;;;;34.67;26.33;;;;;6.90;100.00;102223.16;5076289;27;44793;-82
2022/03/20 07:59:17;;;;;;;;;29.67;25.67;;;;;6.91;100.00;102219.59;5076271;28;45316;-84
2022/03/20 08:01:43;;;;;;;;;30.00;24.00;;;;;7.05;100.00;102221.84;5077339;27;45195;-81
2022/03/20 08:04:09;;;;;;;;;25.33;22.33;;;;;7.21;100.00;102228.47;5076892;27;45257;-83
2022/03/20 08:06:40;;;;;;;;;28.00;24.33;;;;;7.33;100.00;102217.50;5082808;27;44776;-83
2022/03/20 08:09:05;;;;;;;;;28.33;26.33;;;;;7.45;100.00;102216.28;5082367;28;44775;-83
2022/03/20 08:11:34;;;;;;;;;32.00;29.67;;;;;7.62;100.00;102221.91;5087045;27;44785;-82
2022/03/20 08:14:00;;;;;;;;;33.00;26.00;;;;;7.78;100.00;102209.06;5083359;27;45205;-82
2022/03/20 08:16:29;;;;;;;;;31.33;27.33;;;;;7.75;100.00;102217.13;5084236;27;45319;-82
2022/03/20 08:18:56;;;;;;;;;33.67;29.00;;;;;7.67;100.00;102219.13;5086368;27;45399;-82
2022/03/20 08:21:22;;;;;;;;;28.67;26.67;;;;;7.63;100.00;102214.84;5077711;27;44914;-83
2022/03/20 08:23:48;;;;;;;;;36.00;32.67;;;;;7.80;100.00;102215.19;5078430;27;45226;-83
2022/03/20 08:26:14;;;;;;;;;33.33;27.33;;;;;7.96;100.00;102216.44;5078061;27;44720;-82
2022/03/20 08:28:45;;;;;;;;;28.33;25.33;;;;;8.14;100.00;102209.69;5076675;27;45200;-82
2022/03/20 08:31:10;;;;;;;;;31.00;29.00;;;;;8.28;100.00;102222.47;5081126;27;45511;-83
2022/03/20 08:33:36;;;;;;;;;33.33;28.67;;;;;8.20;100.00;102217.41;5083204;27;45003;-81
2022/03/20 08:36:04;;;;;;;;;32.33;27.33;;;;;8.31;100.00;102216.19;5085486;27;45367;-83
2022/03/20 08:38:29;;;;;;;;;35.67;31.00;;;;;8.34;100.00;102213.44;5082965;27;45303;-83
2022/03/20 08:40:55;;;;;;;;;28.67;26.00;;;;;8.35;100.00;102212.50;5081268;27;44882;-84
2022/03/20 08:43:21;;;;;;;;;41.67;31.00;;;;;8.27;100.00;102217.19;5080151;27;45427;-83
2022/03/20 08:45:47;;;;;;;;;30.00;29.00;;;;;8.20;100.00;102220.06;5080964;27;45357;-83
2022/03/20 08:48:12;;;;;;;;;35.00;29.00;;;;;8.19;100.00;102226.28;5081781;27;44949;-82
2022/03/20 08:50:38;;;;;;;;;32.33;32.00;;;;;8.30;100.00;102233.00;5087323;27;44731;-82
2022/03/20 08:53:04;;;;;;;;;38.00;31.67;;;;;8.50;100.00;102223.47;5080601;27;45142;-83
2022/03/20 08:55:33;;;;;;;;;29.00;27.00;;;;;8.78;100.00;102227.81;5078511;27;44885;-83
2022/03/20 08:57:59;;;;;;;;;35.67;32.00;;;;;8.95;100.00;102229.88;5077868;28;44698;-84
2022/03/20 09:00:25;;;;;;;;;32.67;32.33;;;;;9.07;100.00;102234.72;5078046;27;45380;-83
2022/03/20 09:02:53;;;;;;;;;35.00;27.67;;;;;9.23;100.00;102245.63;5079744;27;44955;-84
2022/03/20 09:05:19;;;;;;;;;35.67;30.67;;;;;9.34;100.00;102238.16;5060207;27;45485;-84
2022/03/20 09:07:47;;;;;;;;;31.67;28.33;;;;;9.41;100.00;102236.13;5059172;27;44837;-85
2022/03/20 09:10:15;;;;;;;;;31.67;28.00;;;;;9.56;100.00;102238.19;5058307;28;44920;-84
2022/03/20 09:12:43;;;;;;;;;35.33;29.67;;;;;9.72;100.00;102239.34;5063061;28;45006;-84
2022/03/20 09:15:12;;;;;;;;;33.67;29.00;;;;;9.86;100.00;102236.09;5078094;27;45403;-83
2022/03/20 09:20:21;;;;;;;;;37.00;34.00;;;;;10.09;100.00;102236.97;5081833;28;44806;-84
2022/03/20 09:22:47;;;;;;;;;29.67;28.33;;;;;10.15;100.00;102239.38;5085709;28;45351;-84
2022/03/20 09:25:13;;;;;;;;;35.67;28.33;;;;;10.24;100.00;102244.34;5085110;27;44690;-83
2022/03/20 09:27:38;;;;;;;;;38.33;34.00;;;;;10.34;100.00;102250.13;5079876;27;44776;-84
2022/03/20 09:30:07;;;;;;;;;39.00;33.33;;;;;10.37;100.00;102248.22;5084716;27;44774;-84
2022/03/20 09:32:33;;;;;;;;;38.00;33.00;;;;;10.43;100.00;102242.66;5082034;28;45613;-85
2022/03/20 09:34:58;;;;;;;;;30.67;28.67;;;;;10.55;100.00;102249.25;5058938;27;45581;-83
2022/03/20 09:37:24;;;;;;;;;34.67;29.67;;;;;10.59;99.12;102242.00;5064315;28;45375;-84
2022/03/20 09:39:49;;;;;;;;;26.67;25.67;;;;;10.67;96.38;102247.84;5063048;27;44952;-83
2022/03/20 09:42:18;;;;;;;;;40.67;36.33;;;;;10.54;98.09;102242.22;5060669;28;45446;-84
2022/03/20 09:44:44;;;;;;;;;35.00;28.67;;;;;10.21;97.27;102239.16;5064324;28;44747;-83
2022/03/20 09:47:11;;;;;;;;;34.67;28.67;;;;;10.28;98.89;102236.19;5062259;28;44833;-85
2022/03/20 09:49:37;;;;;;;;;33.00;29.00;;;;;10.39;98.67;102237.53;5060196;28;45539;-84
2022/03/20 09:52:07;;;;;;;;;34.67;29.00;;;;;10.56;99.62;102232.38;5059350;27;45399;-83
2022/03/20 09:54:34;;;;;;;;;37.33;31.67;;;;;10.79;98.67;102232.25;5075714;27;44782;-83
2022/03/20 09:57:07;;;;;;;;;35.00;32.33;;;;;10.94;96.50;102236.03;5081664;27;45354;-84
2022/03/20 09:59:34;;;;;;;;;32.00;30.33;;;;;11.11;96.35;102237.91;5082116;27;45286;-83
2022/03/20 10:02:12;;;;;;;;;36.67;31.67;;;;;11.22;95.00;102243.63;5078797;27;45102;-82
2022/03/20 10:04:56;;;;;;;;;31.33;29.67;;;;;11.28;93.68;102239.81;5060048;28;44814;-84
2022/03/20 10:07:24;;;;;;;;;33.67;31.33;;;;;11.37;93.05;102236.75;5058967;27;45390;-84
2022/03/20 10:10:06;;;;;;;;;33.33;30.00;;;;;11.51;91.97;102244.09;5058000;28;44856;-83
2022/03/20 10:12:34;;;;;;;;;39.67;32.67;;;;;11.58;91.26;102246.38;5057659;28;45359;-84
2022/03/20 10:14:59;;;;;;;;;31.00;27.67;;;;;11.69;89.93;102240.53;5058459;28;44951;-83
2022/03/20 10:17:25;;;;;;;;;28.67;25.00;;;;;11.79;89.33;102240.97;5061092;28;44752;-84
2022/03/20 10:19:50;;;;;;;;;33.00;30.67;;;;;11.69;89.42;102251.19;5061632;28;44864;-82
2022/03/20 10:22:17;;;;;;;;;33.00;31.00;;;;;11.71;87.58;102246.66;5060057;27;45443;-84
2022/03/20 10:24:50;;;;;;;;;32.00;28.00;;;;;11.74;87.84;102250.97;5057212;28;45505;-83
2022/03/20 10:27:17;;;;;;;;;26.67;24.33;;;;;11.75;86.07;102250.06;5058100;28;45360;-83
2022/03/20 10:29:54;;;;;;;;;26.33;24.00;;;;;11.72;85.50;102252.84;5059110;28;45165;-85
2022/03/20 10:32:20;;;;;;;;;34.67;29.33;;;;;11.83;85.15;102256.75;5073530;27;46806;-84
2022/03/20 10:35:00;;;;;;;;;30.00;29.67;;;;;12.00;85.17;102252.44;5073735;27;44864;-85
2022/03/20 10:37:55;;;;;;;;;32.00;28.33;;;;;12.13;85.30;102242.88;5058575;27;45505;-82
2022/03/20 10:40:23;;;;;;;;;30.33;29.33;;;;;12.20;84.58;102246.97;5060749;28;44885;-84
2022/03/20 10:43:09;;;;;;;;;30.67;29.33;;;;;12.12;84.75;102243.81;5069427;27;45664;-83
2022/03/20 10:46:00;;;;;;;;;34.33;29.67;;;;;12.00;83.69;102247.09;5077489;27;44919;-84
2022/03/20 10:48:35;;;;;;;;;34.00;30.33;;;;;11.80;84.52;102240.91;5054935;27;44919;-82
2022/03/20 10:51:02;;;;;;;;;29.33;27.00;;;;;11.99;84.95;102240.03;5077826;27;44919;-81
2022/03/20 10:53:28;;;;;;;;;22.00;19.00;;;;;12.09;77.18;102249.31;5076616;27;45460;-82
2022/03/20 10:56:04;;;;;;;;;17.50;13.75;;;;;12.15;73.05;102249.00;5074193;27;45274;-83
2022/03/20 10:58:30;;;;;;;;;19.50;17.50;;;;;12.21;71.23;102242.50;5072745;27;45445;-83
2022/03/20 11:00:56;;;;;;;;;26.75;24.00;;;;;12.29;72.58;102248.34;5064688;28;44728;-83
2022/03/20 11:03:23;;;;;;;;;18.00;18.00;;;;;12.38;72.58;102249.66;5082074;27;45318;-82
2022/03/20 11:05:54;;;;;;;;;18.00;17.75;;;;;12.51;69.87;102237.44;5069185;27;44807;-83
2022/03/20 11:08:19;;;;;;;;;18.50;15.50;;;;;12.64;62.91;102241.22;5076468;27;45349;-86
2022/03/20 11:10:48;;;;;;;;;16.50;14.00;;;;;12.71;63.70;102228.41;5053603;27;44825;-85
2022/03/20 11:13:16;;;;;;;;;20.75;15.00;;;;;12.81;61.37;102238.53;5065539;28;45354;-85
2022/03/20 11:15:45;;;;;;;;;19.50;17.75;;;;;12.91;62.82;102238.03;5084621;28;44860;-88
2022/03/20 11:18:15;;;;;;;;;17.50;17.50;;;;;13.03;62.29;102232.91;5075591;27;45561;-86
2022/03/20 11:20:45;;;;;;;;;24.25;20.00;;;;;12.96;64.02;102236.88;5093311;27;45096;-88
2022/03/20 11:23:13;;;;;;;;;24.25;23.25;;;;;12.69;66.43;102233.84;5090792;27;45342;-88
2022/03/20 11:25:42;;;;;;;;;21.25;20.25;;;;;12.72;67.10;102225.69;5067363;28;45441;-87
2022/03/20 11:28:10;;;;;;;;;22.25;20.50;;;;;12.90;69.13;102230.97;5064568;28;45223;-88
2022/03/20 11:30:36;;;;;;;;;28.00;25.50;;;;;13.04;69.63;102229.31;5072720;27;44782;-87
2022/03/20 11:33:03;;;;;;;;;19.00;17.75;;;;;13.16;67.39;102237.63;5075770;27;45313;-87
2022/03/20 11:35:34;;;;;;;;;21.75;21.25;;;;;13.21;63.12;102238.22;5079434;28;44875;-89
2022/03/20 11:38:12;;;;;;;;;21.50;17.50;;;;;13.31;63.01;102232.34;5062869;27;44680;-89
2022/03/20 11:40:41;;;;;;;;;22.00;19.75;;;;;13.38;59.86;102224.84;5078459;28;44867;-89
2022/03/20 11:43:15;;;;;;;;;18.00;17.25;;;;;13.47;62.50;102228.81;5076987;27;45463;-88
2022/03/20 11:45:41;;;;;;;;;22.75;22.75;;;;;13.56;65.10;102225.66;5079208;27;45262;-90
2022/03/20 11:48:15;;;;;;;;;27.75;23.75;;;;;13.65;63.07;102229.63;5074278;27;45393;-85
2022/03/20 11:50:47;;;;;;;;;24.00;23.50;;;;;13.67;61.55;102227.72;5064208;28;44948;-85
2022/03/20 11:53:25;;;;;;;;;23.75;19.50;;;;;13.63;59.20;102227.91;5071368;27;46884;-85